createdAt,value
2017-01-11T00:00:16.309Z,93.22
2017-01-11T00:00:50.177Z,93.14
2017-01-11T00:01:16.760Z,93.06
2017-01-11T00:01:41.500Z,93.01
2017-01-11T00:02:08.022Z,93.02
2017-01-11T00:02:30.764Z,92.97
2017-01-11T00:03:03.040Z,93.01
2017-01-11T00:03:29.555Z,93.00
2017-01-11T00:03:57.074Z,92.96
2017-01-11T00:04:19.830Z,92.89
2017-01-11T00:04:46.473Z,92.81
2017-01-11T00:05:11.213Z,92.72
2017-01-11T00:05:42.492Z,92.72
2017-01-11T00:06:05.263Z,92.88
2017-01-11T00:06:29.580Z,93.15
2017-01-11T00:06:51.334Z,93.33
2017-01-11T00:07:13.080Z,93.46
2017-01-11T00:07:35.821Z,93.63
2017-01-11T00:07:57.571Z,93.76
2017-01-11T00:08:19.316Z,93.75
2017-01-11T00:08:41.075Z,93.67
2017-01-11T00:09:02.818Z,93.59
2017-01-11T00:09:24.563Z,93.53
2017-01-11T00:09:51.080Z,93.58
2017-01-11T00:10:12.822Z,93.56
2017-01-11T00:10:34.780Z,93.52
2017-01-11T00:10:56.519Z,93.53
2017-01-11T00:11:18.272Z,93.58
2017-01-11T00:11:40.022Z,93.63
2017-01-11T00:12:01.763Z,93.65
2017-01-11T00:12:23.634Z,93.61
2017-01-11T00:12:46.380Z,93.61
2017-01-11T00:13:08.134Z,93.56
2017-01-11T00:13:29.939Z,93.48
2017-01-11T00:13:51.712Z,93.35
2017-01-11T00:14:13.459Z,93.29
2017-01-11T00:14:35.204Z,93.23
2017-01-11T00:14:57.954Z,93.27
2017-01-11T00:15:19.706Z,93.38
2017-01-11T00:15:41.446Z,93.53
2017-01-11T00:16:04.181Z,93.66
2017-01-11T00:16:26.055Z,93.75
2017-01-11T00:16:47.784Z,93.79
2017-01-11T00:17:09.539Z,93.73
2017-01-11T00:17:31.282Z,93.59
2017-01-11T00:17:53.015Z,93.61
2017-01-11T00:18:14.777Z,93.65
2017-01-11T00:18:39.203Z,93.72
2017-01-11T00:19:00.957Z,93.77
2017-01-11T00:19:28.460Z,93.80
2017-01-11T00:19:50.315Z,93.75
2017-01-11T00:20:12.102Z,93.63
2017-01-11T00:20:38.624Z,93.62
2017-01-11T00:21:00.374Z,93.58
2017-01-11T00:21:26.892Z,93.55
2017-01-11T00:21:48.656Z,93.49
2017-01-11T00:22:10.394Z,93.46
2017-01-11T00:22:32.144Z,93.40
2017-01-11T00:22:53.961Z,93.31
2017-01-11T00:23:15.710Z,93.28
2017-01-11T00:23:46.995Z,93.31
2017-01-11T00:24:08.768Z,93.36
2017-01-11T00:24:30.600Z,93.49
2017-01-11T00:24:52.349Z,93.61
2017-01-11T00:25:14.143Z,93.58
2017-01-11T00:25:35.891Z,93.48
2017-01-11T00:26:02.412Z,93.38
2017-01-11T00:26:50.664Z,93.24
2017-01-11T00:27:12.459Z,93.32
2017-01-11T00:27:34.191Z,93.46
2017-01-11T00:27:55.951Z,93.60
2017-01-11T00:28:18.708Z,93.69
2017-01-11T00:28:45.215Z,93.97
2017-01-11T00:29:09.909Z,94.16
2017-01-11T00:29:31.648Z,94.23
2017-01-11T00:29:54.392Z,94.27
2017-01-11T00:30:21.902Z,94.25
2017-01-11T00:30:44.649Z,94.22
2017-01-11T00:31:11.148Z,94.12
2017-01-11T00:31:32.900Z,94.02
2017-01-11T00:31:54.667Z,93.96
2017-01-11T00:32:16.409Z,93.89
2017-01-11T00:32:38.157Z,93.85
2017-01-11T00:32:59.992Z,93.73
2017-01-11T00:33:21.743Z,93.62
2017-01-11T00:33:43.506Z,93.57
2017-01-11T00:34:05.240Z,93.56
2017-01-11T00:34:27.191Z,93.55
2017-01-11T00:34:49.963Z,93.62
2017-01-11T00:35:11.707Z,93.66
2017-01-11T00:35:38.335Z,93.62
2017-01-11T00:36:04.831Z,93.65
2017-01-11T00:36:26.586Z,93.62
2017-01-11T00:36:48.338Z,93.74
2017-01-11T00:37:11.076Z,93.82
2017-01-11T00:37:32.825Z,93.91
2017-01-11T00:37:54.604Z,93.96
2017-01-11T00:38:16.347Z,94.03
2017-01-11T00:39:04.663Z,94.11
2017-01-11T00:39:52.961Z,94.38
2017-01-11T00:40:14.661Z,94.47
2017-01-11T00:40:36.405Z,94.50
2017-01-11T00:40:58.216Z,94.49
2017-01-11T00:41:47.474Z,94.28
2017-01-11T00:42:09.285Z,94.32
2017-01-11T00:42:57.528Z,94.46
2017-01-11T00:43:19.264Z,94.35
2017-01-11T00:43:41.078Z,94.34
2017-01-11T00:44:29.269Z,94.15
2017-01-11T00:44:53.211Z,94.10
2017-01-11T00:45:14.950Z,94.15
2017-01-11T00:45:41.486Z,94.13
2017-01-11T00:46:08.050Z,94.06
2017-01-11T00:46:29.793Z,94.08
2017-01-11T00:46:51.553Z,94.11
2017-01-11T00:47:13.899Z,94.09
2017-01-11T00:47:40.408Z,94.08
2017-01-11T00:48:03.148Z,94.14
2017-01-11T00:48:24.896Z,94.26
2017-01-11T00:48:46.751Z,94.31
2017-01-11T00:49:08.536Z,94.49
2017-01-11T00:49:30.287Z,94.56
2017-01-11T00:49:52.034Z,94.65
2017-01-11T00:50:18.564Z,94.77
2017-01-11T00:50:40.322Z,94.87
2017-01-11T00:51:02.072Z,94.90
2017-01-11T00:51:24.828Z,94.85
2017-01-11T00:51:46.584Z,94.69
2017-01-11T00:52:09.375Z,94.65
2017-01-11T00:52:31.103Z,94.62
2017-01-11T00:52:55.480Z,94.50
2017-01-11T00:53:17.202Z,94.37
2017-01-11T00:53:38.952Z,94.43
2017-01-11T00:54:00.751Z,94.50
2017-01-11T00:54:22.475Z,94.57
2017-01-11T00:55:10.737Z,94.76
2017-01-11T00:55:32.499Z,94.85
2017-01-11T00:55:54.249Z,94.82
2017-01-11T00:56:16.017Z,94.79
2017-01-11T00:56:37.777Z,94.73
2017-01-11T00:56:59.533Z,94.71
2017-01-11T00:57:47.800Z,94.52
2017-01-11T00:58:09.545Z,94.55
2017-01-11T00:58:31.286Z,94.68
2017-01-11T00:58:53.199Z,94.78
2017-01-11T00:59:15.950Z,94.86
2017-01-11T00:59:37.705Z,95.00
2017-01-11T00:59:59.442Z,95.11
2017-01-11T01:00:21.192Z,95.17
2017-01-11T01:00:42.932Z,95.07
2017-01-11T01:01:09.441Z,95.08
2017-01-11T01:01:31.182Z,95.10
2017-01-11T01:01:52.918Z,95.17
2017-01-11T01:02:19.457Z,95.15
2017-01-11T01:02:41.205Z,95.23
2017-01-11T01:03:07.713Z,95.25
2017-01-11T01:03:33.452Z,95.29
2017-01-11T01:03:55.215Z,95.28
2017-01-11T01:04:21.814Z,95.29
2017-01-11T01:04:48.448Z,95.32
2017-01-11T01:05:15.013Z,95.32
2017-01-11T01:05:36.771Z,95.29
2017-01-11T01:05:58.559Z,95.20
2017-01-11T01:06:20.279Z,95.15
2017-01-11T01:06:49.731Z,95.08
2017-01-11T01:07:16.254Z,95.10
2017-01-11T01:07:38.009Z,95.13
2017-01-11T01:08:04.528Z,95.21
2017-01-11T01:08:31.029Z,95.25
2017-01-11T01:08:52.803Z,95.29
2017-01-11T01:09:14.550Z,95.29
2017-01-11T01:09:36.683Z,95.28
2017-01-11T01:10:51.510Z,95.17
2017-01-11T01:11:14.256Z,95.26
2017-01-11T01:11:35.992Z,95.27
2017-01-11T01:11:57.758Z,95.23
2017-01-11T01:12:19.496Z,95.18
2017-01-11T01:13:40.034Z,95.04
2017-01-11T01:14:01.784Z,95.10
2017-01-11T01:14:23.529Z,95.14
2017-01-11T01:14:45.270Z,95.16
2017-01-11T01:15:11.773Z,95.13
2017-01-11T01:15:33.535Z,95.11
2017-01-11T01:15:56.303Z,95.16
2017-01-11T01:16:18.047Z,95.15
2017-01-11T01:16:39.797Z,95.13
2017-01-11T01:17:01.554Z,95.06
2017-01-11T01:17:23.301Z,95.02
2017-01-11T01:17:45.044Z,94.91
2017-01-11T01:18:06.787Z,94.83
2017-01-11T01:18:28.537Z,94.82
2017-01-11T01:18:50.282Z,94.80
2017-01-11T01:19:12.060Z,94.71
2017-01-11T01:19:33.804Z,94.65
2017-01-11T01:19:55.549Z,94.53
2017-01-11T01:20:17.298Z,94.50
2017-01-11T01:20:39.082Z,94.53
2017-01-11T01:21:05.607Z,94.62
2017-01-11T01:21:27.363Z,94.63
2017-01-11T01:21:49.123Z,94.55
2017-01-11T01:22:10.857Z,94.44
2017-01-11T01:22:32.604Z,94.36
2017-01-11T01:22:55.361Z,94.28
2017-01-11T01:23:44.617Z,94.26
2017-01-11T01:24:42.403Z,94.29
2017-01-11T01:25:32.060Z,94.45
2017-01-11T01:25:53.814Z,94.47
2017-01-11T01:26:15.613Z,94.46
2017-01-11T01:26:38.387Z,94.38
2017-01-11T01:27:00.128Z,94.29
2017-01-11T01:27:21.873Z,94.30
2017-01-11T01:27:43.613Z,94.30
2017-01-11T01:28:46.166Z,94.21
2017-01-11T01:29:07.945Z,94.22
2017-01-11T01:30:00.959Z,94.25
2017-01-11T01:30:27.485Z,94.28
2017-01-11T01:30:49.235Z,94.22
2017-01-11T01:31:10.982Z,94.27
2017-01-11T01:31:37.492Z,94.39
2017-01-11T01:32:03.994Z,94.50
2017-01-11T01:32:25.732Z,94.57
2017-01-11T01:32:47.511Z,94.65
2017-01-11T01:33:09.345Z,94.73
2017-01-11T01:33:31.293Z,94.75
2017-01-11T01:33:58.804Z,94.76
2017-01-11T01:34:20.589Z,94.78
2017-01-11T01:34:42.337Z,94.76
2017-01-11T01:35:08.846Z,94.67
2017-01-11T01:35:30.796Z,94.56
2017-01-11T01:35:52.548Z,94.37
2017-01-11T01:36:14.292Z,94.23
2017-01-11T01:36:36.057Z,94.15
2017-01-11T01:36:57.809Z,94.11
2017-01-11T01:38:23.076Z,94.16
2017-01-11T01:38:44.837Z,94.20
2017-01-11T01:39:33.104Z,94.31
2017-01-11T01:39:54.858Z,94.40
2017-01-11T01:40:26.118Z,94.56
2017-01-11T01:40:52.630Z,94.65
2017-01-11T01:41:14.375Z,94.68
2017-01-11T01:41:36.129Z,94.63
2017-01-11T01:42:30.145Z,94.29
2017-01-11T01:42:51.875Z,94.21
2017-01-11T01:43:14.620Z,94.10
2017-01-11T01:43:41.137Z,93.97
2017-01-11T01:44:02.890Z,93.88
2017-01-11T01:44:25.626Z,93.79
2017-01-11T01:44:48.385Z,93.75
2017-01-11T01:45:10.125Z,93.76
2017-01-11T01:45:37.628Z,93.78
2017-01-11T01:45:59.402Z,93.85
2017-01-11T01:46:21.138Z,93.89
2017-01-11T01:46:47.649Z,93.98
2017-01-11T01:47:09.408Z,93.96
2017-01-11T01:47:35.918Z,94.13
2017-01-11T01:48:02.423Z,94.28
2017-01-11T01:48:25.173Z,94.28
2017-01-11T01:48:51.680Z,94.22
2017-01-11T01:49:13.412Z,94.19
2017-01-11T01:49:35.160Z,94.21
2017-01-11T01:49:56.922Z,94.11
2017-01-11T01:50:23.421Z,94.06
2017-01-11T01:50:49.964Z,94.02
2017-01-11T01:51:11.703Z,94.02
2017-01-11T01:51:33.445Z,93.96
2017-01-11T01:51:55.217Z,93.91
2017-01-11T01:52:16.966Z,93.92
2017-01-11T01:52:38.706Z,93.95
2017-01-11T01:53:05.209Z,93.90
2017-01-11T01:53:26.958Z,93.87
2017-01-11T01:53:48.716Z,93.91
2017-01-11T01:54:10.475Z,93.99
2017-01-11T01:54:32.213Z,94.03
2017-01-11T01:54:58.738Z,94.02
2017-01-11T01:55:20.623Z,94.01
2017-01-11T01:55:47.171Z,93.96
2017-01-11T01:56:08.916Z,93.96
2017-01-11T01:56:30.654Z,93.97
2017-01-11T01:56:52.405Z,93.98
2017-01-11T01:57:14.155Z,94.01
2017-01-11T01:57:35.915Z,94.02
2017-01-11T01:57:57.653Z,93.92
2017-01-11T01:58:19.415Z,93.90
2017-01-11T01:58:45.917Z,93.97
2017-01-11T01:59:12.445Z,94.09
2017-01-11T01:59:34.176Z,94.03
2017-01-11T01:59:56.917Z,93.99
2017-01-11T02:00:18.666Z,93.88
2017-01-11T02:00:40.403Z,93.90
2017-01-11T02:01:28.659Z,93.94
2017-01-11T02:01:50.407Z,93.99
2017-01-11T02:02:12.157Z,94.07
2017-01-11T02:02:38.663Z,94.07
2017-01-11T02:03:01.412Z,94.07
2017-01-11T02:03:23.155Z,94.04
2017-01-11T02:03:44.906Z,93.95
2017-01-11T02:04:06.643Z,93.91
2017-01-11T02:04:28.402Z,93.93
2017-01-11T02:04:50.137Z,93.92
2017-01-11T02:05:11.887Z,93.87
2017-01-11T02:05:38.399Z,93.88
2017-01-11T02:06:00.135Z,93.90
2017-01-11T02:06:21.885Z,93.89
2017-01-11T02:06:43.632Z,93.78
2017-01-11T02:07:05.587Z,93.68
2017-01-11T02:07:27.244Z,93.71
2017-01-11T02:07:48.979Z,93.86
2017-01-11T02:08:10.739Z,93.82
2017-01-11T02:08:32.483Z,93.73
2017-01-11T02:08:54.219Z,93.72
2017-01-11T02:09:15.967Z,93.67
2017-01-11T02:09:37.729Z,93.59
2017-01-11T02:09:59.477Z,93.56
2017-01-11T02:10:25.986Z,93.55
2017-01-11T02:10:47.757Z,93.55
2017-01-11T02:11:09.510Z,93.57
2017-01-11T02:11:36.003Z,93.62
2017-01-11T02:11:57.746Z,93.76
2017-01-11T02:12:19.496Z,93.81
2017-01-11T02:12:46.005Z,93.72
2017-01-11T02:13:07.745Z,93.71
2017-01-11T02:13:29.508Z,93.70
2017-01-11T02:13:51.262Z,93.71
2017-01-11T02:14:12.999Z,93.71
2017-01-11T02:14:34.742Z,93.73
2017-01-11T02:14:56.480Z,93.83
2017-01-11T02:15:18.226Z,93.92
2017-01-11T02:15:49.520Z,94.00
2017-01-11T02:16:11.272Z,94.01
2017-01-11T02:16:33.045Z,94.12
2017-01-11T02:16:54.774Z,94.18
2017-01-11T02:17:16.530Z,94.25
2017-01-11T02:17:38.271Z,94.34
2017-01-11T02:18:07.456Z,94.46
2017-01-11T02:19:28.029Z,94.55
2017-01-11T02:19:52.387Z,94.55
2017-01-11T02:20:16.670Z,94.53
2017-01-11T02:20:38.282Z,94.49
2017-01-11T02:21:10.571Z,94.50
2017-01-11T02:21:37.079Z,94.42
2017-01-11T02:21:58.867Z,94.36
2017-01-11T02:22:21.619Z,94.26
2017-01-11T02:22:43.358Z,94.14
2017-01-11T02:23:36.029Z,94.07
2017-01-11T02:24:24.297Z,94.21
2017-01-11T02:24:50.807Z,94.29
2017-01-11T02:25:39.058Z,94.30
2017-01-11T02:26:05.576Z,94.25
2017-01-11T02:26:27.321Z,94.15
2017-01-11T02:27:20.552Z,93.79
2017-01-11T02:27:42.296Z,93.58
2017-01-11T02:28:04.040Z,93.57
2017-01-11T02:28:25.803Z,93.76
2017-01-11T02:28:47.546Z,93.90
2017-01-11T02:29:11.856Z,94.03
2017-01-11T02:30:05.865Z,94.03
2017-01-11T02:30:27.602Z,94.00
2017-01-11T02:31:43.793Z,94.41
2017-01-11T02:32:06.533Z,94.42
2017-01-11T02:32:33.044Z,94.46
2017-01-11T02:32:55.788Z,94.34
2017-01-11T02:33:17.526Z,94.30
2017-01-11T02:33:39.275Z,94.31
2017-01-11T02:34:01.016Z,94.30
2017-01-11T02:34:22.770Z,94.29
2017-01-11T02:34:44.527Z,94.27
2017-01-11T02:35:06.265Z,94.23
2017-01-11T02:35:28.007Z,94.15
2017-01-11T02:35:49.761Z,94.11
2017-01-11T02:36:11.508Z,94.13
2017-01-11T02:36:33.239Z,94.17
2017-01-11T02:36:55.994Z,94.13
2017-01-11T02:37:22.497Z,94.12
2017-01-11T02:38:10.752Z,93.96
2017-01-11T02:38:32.500Z,93.89
2017-01-11T02:38:54.247Z,93.88
2017-01-11T02:39:15.981Z,93.78
2017-01-11T02:39:43.496Z,93.76
2017-01-11T02:40:10.021Z,93.71
2017-01-11T02:40:32.762Z,93.67
2017-01-11T02:40:54.510Z,93.61
2017-01-11T02:41:16.256Z,93.52
2017-01-11T02:41:38.015Z,93.38
2017-01-11T02:42:04.525Z,93.24
2017-01-11T02:42:26.263Z,93.21
2017-01-11T02:44:08.357Z,93.27
2017-01-11T02:44:30.101Z,93.30
2017-01-11T02:44:51.850Z,93.34
2017-01-11T02:45:13.614Z,93.26
2017-01-11T02:45:35.364Z,93.20
2017-01-11T02:45:57.120Z,93.16
2017-01-11T02:46:18.873Z,93.18
2017-01-11T02:46:40.620Z,93.21
2017-01-11T02:47:05.373Z,93.23
2017-01-11T02:47:27.107Z,93.31
2017-01-11T02:47:53.610Z,93.32
2017-01-11T02:48:20.145Z,93.28
2017-01-11T02:48:46.460Z,93.22
2017-01-11T02:49:08.204Z,93.10
2017-01-11T02:49:29.962Z,93.16
2017-01-11T02:49:51.711Z,93.11
2017-01-11T02:50:13.469Z,93.08
2017-01-11T02:50:36.339Z,93.05
2017-01-11T02:50:57.994Z,92.89
2017-01-11T02:51:20.745Z,92.91
2017-01-11T02:51:42.713Z,92.97
2017-01-11T02:52:04.449Z,93.02
2017-01-11T02:52:26.195Z,93.01
2017-01-11T02:53:19.216Z,92.87
2017-01-11T02:53:45.735Z,92.81
2017-01-11T02:54:34.011Z,92.76
2017-01-11T02:54:55.767Z,92.65
2017-01-11T02:55:18.624Z,92.64
2017-01-11T02:55:41.395Z,92.69
2017-01-11T02:56:03.136Z,92.75
2017-01-11T02:56:24.893Z,92.70
2017-01-11T02:56:47.646Z,92.72
2017-01-11T02:57:09.402Z,92.81
2017-01-11T02:57:57.655Z,92.77
2017-01-11T02:58:20.388Z,92.92
2017-01-11T02:58:42.129Z,93.03
2017-01-11T02:59:03.876Z,93.07
2017-01-11T02:59:26.611Z,92.99
2017-01-11T02:59:48.350Z,92.90
2017-01-11T03:00:10.109Z,92.83
2017-01-11T03:00:31.879Z,92.82
2017-01-11T03:01:21.133Z,92.85
2017-01-11T03:01:45.720Z,92.83
2017-01-11T03:02:07.498Z,92.81
2017-01-11T03:02:29.236Z,92.79
2017-01-11T03:02:50.986Z,92.83
2017-01-11T03:03:17.492Z,92.86
2017-01-11T03:03:39.266Z,92.72
2017-01-11T03:04:01.007Z,92.78
2017-01-11T03:04:27.505Z,92.87
2017-01-11T03:04:54.053Z,92.92
2017-01-11T03:05:47.096Z,92.87
2017-01-11T03:06:08.843Z,92.95
2017-01-11T03:06:30.587Z,92.96
2017-01-11T03:06:57.099Z,92.93
2017-01-11T03:07:18.841Z,92.82
2017-01-11T03:07:40.584Z,92.85
2017-01-11T03:08:02.333Z,92.80
2017-01-11T03:08:50.571Z,92.78
2017-01-11T03:09:12.319Z,92.94
2017-01-11T03:09:34.069Z,93.00
2017-01-11T03:09:55.803Z,93.00
2017-01-11T03:10:18.552Z,93.04
2017-01-11T03:10:45.070Z,93.08
2017-01-11T03:11:06.815Z,93.16
2017-01-11T03:11:28.555Z,93.12
2017-01-11T03:11:51.310Z,93.07
2017-01-11T03:12:13.055Z,93.14
2017-01-11T03:12:34.794Z,93.14
2017-01-11T03:13:01.335Z,93.00
2017-01-11T03:13:23.090Z,92.90
2017-01-11T03:13:49.605Z,92.85
2017-01-11T03:14:11.350Z,92.82
2017-01-11T03:14:33.094Z,92.87
2017-01-11T03:14:55.838Z,92.80
2017-01-11T03:15:17.613Z,92.83
2017-01-11T03:15:39.355Z,92.92
2017-01-11T03:16:28.614Z,92.90
2017-01-11T03:16:50.452Z,92.81
2017-01-11T03:17:12.193Z,92.73
2017-01-11T03:17:33.931Z,92.78
2017-01-11T03:17:55.683Z,92.80
2017-01-11T03:18:26.952Z,92.85
2017-01-11T03:19:11.793Z,92.58
2017-01-11T03:19:45.067Z,92.46
2017-01-11T03:20:07.813Z,92.45
2017-01-11T03:20:34.309Z,92.47
2017-01-11T03:21:03.266Z,92.52
2017-01-11T03:21:25.010Z,92.61
2017-01-11T03:21:47.742Z,92.64
2017-01-11T03:22:44.653Z,92.59
2017-01-11T03:23:10.978Z,92.56
2017-01-11T03:23:32.861Z,92.61
2017-01-11T03:24:25.871Z,92.78
2017-01-11T03:24:52.384Z,92.80
2017-01-11T03:25:18.924Z,92.74
2017-01-11T03:25:48.134Z,92.60
2017-01-11T03:26:14.631Z,92.55
2017-01-11T03:26:41.142Z,92.55
2017-01-11T03:27:07.653Z,92.57
2017-01-11T03:27:30.389Z,92.73
2017-01-11T03:27:56.909Z,92.92
2017-01-11T03:28:20.642Z,93.00
2017-01-11T03:29:08.928Z,93.20
2017-01-11T03:29:30.697Z,93.25
2017-01-11T03:29:53.450Z,93.23
2017-01-11T03:30:25.717Z,93.28
2017-01-11T03:30:54.881Z,93.25
2017-01-11T03:31:21.347Z,93.13
2017-01-11T03:31:43.085Z,93.15
2017-01-11T03:32:04.861Z,93.08
2017-01-11T03:32:31.385Z,92.94
2017-01-11T03:32:53.137Z,92.85
2017-01-11T03:33:14.878Z,92.96
2017-01-11T03:33:41.380Z,92.96
2017-01-11T03:34:03.124Z,92.92
2017-01-11T03:34:24.873Z,92.85
2017-01-11T03:34:46.622Z,92.77
2017-01-11T03:35:08.577Z,92.67
2017-01-11T03:35:30.314Z,92.57
2017-01-11T03:35:52.062Z,92.51
2017-01-11T03:36:13.830Z,92.53
2017-01-11T03:36:35.572Z,92.65
2017-01-11T03:36:57.521Z,92.70
2017-01-11T03:37:19.259Z,92.69
2017-01-11T03:37:45.774Z,92.71
2017-01-11T03:38:08.509Z,92.69
2017-01-11T03:38:30.251Z,92.72
2017-01-11T03:38:52.015Z,92.87
2017-01-11T03:39:15.774Z,93.00
2017-01-11T03:39:37.521Z,93.12
2017-01-11T03:39:59.255Z,93.21
2017-01-11T03:40:21.031Z,93.29
2017-01-11T03:40:42.773Z,93.34
2017-01-11T03:41:04.522Z,93.39
2017-01-11T03:41:26.273Z,93.37
2017-01-11T03:41:48.005Z,93.35
2017-01-11T03:42:14.514Z,93.32
2017-01-11T03:42:36.267Z,93.33
2017-01-11T03:42:58.008Z,93.35
2017-01-11T03:43:19.740Z,93.30
2017-01-11T03:43:41.477Z,93.22
2017-01-11T03:44:03.234Z,93.15
2017-01-11T03:44:24.985Z,93.09
2017-01-11T03:44:46.719Z,93.09
2017-01-11T03:45:08.467Z,93.05
2017-01-11T03:45:34.991Z,93.06
2017-01-11T03:45:56.725Z,92.99
2017-01-11T03:46:19.483Z,92.95
2017-01-11T03:46:41.224Z,92.97
2017-01-11T03:47:02.966Z,92.99
2017-01-11T03:47:24.831Z,93.09
2017-01-11T03:47:46.573Z,93.29
2017-01-11T03:48:34.837Z,93.37
2017-01-11T03:48:56.600Z,93.41
2017-01-11T03:49:19.344Z,93.38
2017-01-11T03:49:41.075Z,93.48
2017-01-11T03:50:02.821Z,93.60
2017-01-11T03:50:24.568Z,93.59
2017-01-11T03:50:46.316Z,93.52
2017-01-11T03:51:08.101Z,93.43
2017-01-11T03:51:29.837Z,93.37
2017-01-11T03:51:51.580Z,93.30
2017-01-11T03:52:13.331Z,93.33
2017-01-11T03:52:35.066Z,93.33
2017-01-11T03:53:01.572Z,93.31
2017-01-11T03:53:23.312Z,93.23
2017-01-11T03:53:45.085Z,93.15
2017-01-11T03:54:06.816Z,93.11
2017-01-11T03:54:28.643Z,93.12
2017-01-11T03:54:50.403Z,93.07
2017-01-11T03:55:12.152Z,93.09
2017-01-11T03:55:33.894Z,93.18
2017-01-11T03:56:00.397Z,93.19
2017-01-11T03:56:22.143Z,93.20
2017-01-11T03:56:43.888Z,93.21
2017-01-11T03:57:05.626Z,93.22
2017-01-11T03:57:27.369Z,93.22
2017-01-11T03:57:53.879Z,93.22
2017-01-11T03:58:15.648Z,93.31
2017-01-11T03:58:37.377Z,93.37
2017-01-11T03:59:00.109Z,93.37
2017-01-11T03:59:26.632Z,93.30
2017-01-11T03:59:51.308Z,93.21
2017-01-11T04:00:13.094Z,93.25
2017-01-11T04:00:34.839Z,93.40
2017-01-11T04:00:56.572Z,93.42
2017-01-11T04:01:18.320Z,93.46
2017-01-11T04:01:40.083Z,93.46
2017-01-11T04:02:01.828Z,93.44
2017-01-11T04:02:23.565Z,93.45
2017-01-11T04:02:45.313Z,93.52
2017-01-11T04:03:07.051Z,93.51
2017-01-11T04:03:29.806Z,93.44
2017-01-11T04:03:51.544Z,93.43
2017-01-11T04:04:18.050Z,93.54
2017-01-11T04:04:40.788Z,93.57
2017-01-11T04:05:03.633Z,93.58
2017-01-11T04:06:20.996Z,93.60
2017-01-11T04:06:42.750Z,93.64
2017-01-11T04:07:31.204Z,93.71
2017-01-11T04:07:52.945Z,93.65
2017-01-11T04:08:17.214Z,93.60
2017-01-11T04:09:12.942Z,93.58
2017-01-11T04:09:34.673Z,93.64
2017-01-11T04:09:58.462Z,93.70
2017-01-11T04:10:47.723Z,93.61
2017-01-11T04:11:14.232Z,93.60
2017-01-11T04:12:03.489Z,93.60
2017-01-11T04:12:26.243Z,93.57
2017-01-11T04:12:47.989Z,93.50
2017-01-11T04:13:13.873Z,93.48
2017-01-11T04:13:44.283Z,93.42
2017-01-11T04:14:06.025Z,93.55
2017-01-11T04:14:27.983Z,93.51
2017-01-11T04:14:50.723Z,93.52
2017-01-11T04:15:20.150Z,93.61
2017-01-11T04:15:46.655Z,93.61
2017-01-11T04:16:16.063Z,93.69
2017-01-11T04:16:43.647Z,93.64
2017-01-11T04:17:10.155Z,93.59
2017-01-11T04:17:34.402Z,93.53
2017-01-11T04:18:00.821Z,93.64
2017-01-11T04:18:27.341Z,93.62
2017-01-11T04:18:49.074Z,93.54
2017-01-11T04:19:11.814Z,93.58
2017-01-11T04:19:33.557Z,93.61
2017-01-11T04:19:55.302Z,93.55
2017-01-11T04:20:17.038Z,93.59
2017-01-11T04:20:38.786Z,93.68
2017-01-11T04:21:00.544Z,93.77
2017-01-11T04:21:22.282Z,93.77
2017-01-11T04:21:48.812Z,93.78
2017-01-11T04:22:10.544Z,93.77
2017-01-11T04:22:32.286Z,93.70
2017-01-11T04:22:54.027Z,93.72
2017-01-11T04:23:15.767Z,93.82
2017-01-11T04:23:37.515Z,93.82
2017-01-11T04:23:59.255Z,93.72
2017-01-11T04:24:21.003Z,93.61
2017-01-11T04:24:44.765Z,93.72
2017-01-11T04:25:06.519Z,93.76
2017-01-11T04:25:54.919Z,93.80
2017-01-11T04:26:16.664Z,93.79
2017-01-11T04:26:39.396Z,93.69
2017-01-11T04:27:01.145Z,93.83
2017-01-11T04:27:22.893Z,93.70
2017-01-11T04:27:44.638Z,93.67
2017-01-11T04:28:37.857Z,93.59
2017-01-11T04:28:59.591Z,93.68
2017-01-11T04:29:47.844Z,93.64
2017-01-11T04:30:09.575Z,93.58
2017-01-11T04:30:31.317Z,93.64
2017-01-11T04:30:55.725Z,93.72
2017-01-11T04:31:46.960Z,93.60
2017-01-11T04:32:08.783Z,93.51
2017-01-11T04:32:30.517Z,93.66
2017-01-11T04:32:52.260Z,93.67
2017-01-11T04:33:14.009Z,93.73
2017-01-11T04:33:35.760Z,93.77
2017-01-11T04:33:57.498Z,93.92
2017-01-11T04:34:19.255Z,93.99
2017-01-11T04:34:40.992Z,94.04
2017-01-11T04:35:05.432Z,94.11
2017-01-11T04:35:27.167Z,94.05
2017-01-11T04:35:48.903Z,93.96
2017-01-11T04:36:15.416Z,93.99
2017-01-11T04:36:37.170Z,94.12
2017-01-11T04:36:58.923Z,94.21
2017-01-11T04:37:21.654Z,94.19
2017-01-11T04:37:43.394Z,94.23
2017-01-11T04:38:05.150Z,94.32
2017-01-11T04:38:26.893Z,94.42
2017-01-11T04:38:53.410Z,94.34
2017-01-11T04:39:15.151Z,94.36
2017-01-11T04:39:41.666Z,94.48
2017-01-11T04:40:04.408Z,94.47
2017-01-11T04:40:27.153Z,94.34
2017-01-11T04:40:48.885Z,94.35
2017-01-11T04:41:10.821Z,94.35
2017-01-11T04:41:32.567Z,94.35
2017-01-11T04:41:54.308Z,94.39
2017-01-11T04:42:16.047Z,94.41
2017-01-11T04:42:42.763Z,94.46
2017-01-11T04:43:04.504Z,94.44
2017-01-11T04:43:31.009Z,94.42
2017-01-11T04:43:52.756Z,94.50
2017-01-11T04:44:14.511Z,94.49
2017-01-11T04:44:41.027Z,94.29
2017-01-11T04:45:05.769Z,94.45
2017-01-11T04:45:27.510Z,94.41
2017-01-11T04:45:49.256Z,94.55
2017-01-11T04:46:11.990Z,94.44
2017-01-11T04:46:34.732Z,94.44
2017-01-11T04:46:56.488Z,94.52
2017-01-11T04:47:18.255Z,94.63
2017-01-11T04:47:41.000Z,94.69
2017-01-11T04:48:02.755Z,94.72
2017-01-11T04:48:24.493Z,94.71
2017-01-11T04:48:47.260Z,94.59
2017-01-11T04:49:11.002Z,94.49
2017-01-11T04:49:32.755Z,94.47
2017-01-11T04:49:59.277Z,94.42
2017-01-11T04:50:21.039Z,94.41
2017-01-11T04:51:14.049Z,94.44
2017-01-11T04:51:35.788Z,94.36
2017-01-11T04:52:02.286Z,94.42
2017-01-11T04:52:28.801Z,94.50
2017-01-11T04:52:50.556Z,94.54
2017-01-11T04:53:12.331Z,94.59
2017-01-11T04:53:34.070Z,94.65
2017-01-11T04:53:55.804Z,94.63
2017-01-11T04:54:22.341Z,94.49
2017-01-11T04:54:48.856Z,94.47
2017-01-11T04:55:15.359Z,94.47
2017-01-11T04:55:41.862Z,94.46
2017-01-11T04:56:05.622Z,94.52
2017-01-11T04:56:55.068Z,94.60
2017-01-11T04:57:16.813Z,94.69
2017-01-11T04:57:38.553Z,94.73
2017-01-11T04:58:00.351Z,94.76
2017-01-11T04:58:22.093Z,94.76
2017-01-11T04:58:43.848Z,94.77
2017-01-11T04:59:05.600Z,94.67
2017-01-11T04:59:27.328Z,94.68
2017-01-11T05:00:15.581Z,94.74
2017-01-11T05:00:37.337Z,94.75
2017-01-11T05:00:59.080Z,94.71
2017-01-11T05:01:20.819Z,94.66
2017-01-11T05:01:47.346Z,94.56
2017-01-11T05:02:14.855Z,94.55
2017-01-11T05:02:39.107Z,94.55
2017-01-11T05:03:00.844Z,94.58
2017-01-11T05:03:22.611Z,94.56
2017-01-11T05:03:44.357Z,94.56
2017-01-11T05:04:07.090Z,94.52
2017-01-11T05:04:29.846Z,94.63
2017-01-11T05:04:57.366Z,94.53
2017-01-11T05:05:46.614Z,94.54
2017-01-11T05:06:34.904Z,94.79
2017-01-11T05:06:56.646Z,94.83
2017-01-11T05:07:23.155Z,94.75
2017-01-11T05:07:44.904Z,94.72
2017-01-11T05:08:06.646Z,94.70
2017-01-11T05:08:28.399Z,94.67
2017-01-11T05:08:50.355Z,94.63
2017-01-11T05:09:13.091Z,94.61
2017-01-11T05:09:39.605Z,94.54
2017-01-11T05:10:01.345Z,94.61
2017-01-11T05:10:55.367Z,94.59
2017-01-11T05:11:17.133Z,94.62
2017-01-11T05:11:38.906Z,94.66
2017-01-11T05:12:00.653Z,94.74
2017-01-11T05:12:22.413Z,94.71
2017-01-11T05:12:44.154Z,94.63
2017-01-11T05:13:11.661Z,94.57
2017-01-11T05:13:33.393Z,94.60
2017-01-11T05:13:55.139Z,94.63
2017-01-11T05:14:16.904Z,94.63
2017-01-11T05:14:38.646Z,94.73
2017-01-11T05:15:06.153Z,94.76
2017-01-11T05:15:27.894Z,94.78
2017-01-11T05:15:54.412Z,94.79
2017-01-11T05:16:16.360Z,94.83
2017-01-11T05:16:38.103Z,94.75
2017-01-11T05:16:59.895Z,94.74
2017-01-11T05:17:21.636Z,94.69
2017-01-11T05:18:15.645Z,94.66
2017-01-11T05:18:37.411Z,94.64
2017-01-11T05:19:30.440Z,94.76
2017-01-11T05:19:52.188Z,94.75
2017-01-11T05:20:13.936Z,94.65
2017-01-11T05:20:35.682Z,94.84
2017-01-11T05:20:57.428Z,94.87
2017-01-11T05:21:19.189Z,94.91
2017-01-11T05:21:45.696Z,94.89
2017-01-11T05:22:08.461Z,95.02
2017-01-11T05:22:31.215Z,94.98
2017-01-11T05:22:52.985Z,95.01
2017-01-11T05:23:14.723Z,95.06
2017-01-11T05:23:36.483Z,95.15
2017-01-11T05:23:58.240Z,95.19
2017-01-11T05:24:46.498Z,95.13
2017-01-11T05:25:08.243Z,95.10
2017-01-11T05:25:30.000Z,95.05
2017-01-11T05:25:51.767Z,94.91
2017-01-11T05:26:13.513Z,94.94
2017-01-11T05:26:36.249Z,94.90